createdAt,value
2023-01-31T00:01:54.537Z,66.19
2023-01-31T00:04:22.237Z,66.26
2023-01-31T00:06:51.747Z,66.38
2023-01-31T00:09:19.585Z,66.49
2023-01-31T00:11:47.869Z,66.64
2023-01-31T00:14:18.269Z,66.65
2023-01-31T00:16:52.274Z,66.91
2023-01-31T00:19:19.728Z,66.92
2023-01-31T00:21:46.694Z,66.99
2023-01-31T00:24:13.863Z,66.88
2023-01-31T00:26:43.252Z,66.81
2023-01-31T00:29:11.401Z,67.19
2023-01-31T00:31:39.072Z,67.04
2023-01-31T00:34:06.715Z,66.85
2023-01-31T00:36:34.816Z,66.76
2023-01-31T00:39:02.652Z,66.93
2023-01-31T00:41:30.033Z,66.76
2023-01-31T00:44:00.182Z,66.66
2023-01-31T00:46:27.394Z,66.68
2023-01-31T00:48:55.774Z,66.67
2023-01-31T00:51:26.399Z,65.99
2023-01-31T00:53:54.168Z,65.47
2023-01-31T00:56:23.107Z,65.34
2023-01-31T00:58:51.489Z,65.05
2023-01-31T01:01:21.320Z,64.91
2023-01-31T01:03:48.220Z,65.11
2023-01-31T04:35:14.243Z,73.58
2023-01-31T04:37:46.602Z,73.16
2023-01-31T04:40:15.106Z,72.78
2023-01-31T04:42:43.099Z,72.68
2023-01-31T04:45:16.532Z,72.26
2023-01-31T04:47:51.699Z,71.99
2023-01-31T04:50:20.152Z,71.83
2023-01-31T04:52:50.936Z,71.88
2023-01-31T04:55:18.899Z,71.75
2023-01-31T04:57:52.002Z,71.59
2023-01-31T05:00:22.467Z,71.62
2023-01-31T05:02:50.413Z,71.44
2023-01-31T05:05:18.900Z,71.16
2023-01-31T05:07:47.019Z,70.90
2023-01-31T05:10:13.911Z,70.44
2023-01-31T05:12:43.162Z,70.45
2023-01-31T05:15:20.589Z,70.28
2023-01-31T05:18:02.424Z,70.22
2023-01-31T05:20:56.417Z,70.33
2023-01-31T05:23:25.426Z,70.25
2023-01-31T05:25:54.072Z,70.28
2023-01-31T05:28:21.010Z,70.20
2023-01-31T05:31:02.203Z,70.42
2023-01-31T05:33:32.603Z,70.37
2023-01-31T05:35:59.980Z,70.13
2023-01-31T05:38:27.881Z,69.96
2023-01-31T05:40:56.089Z,69.98
2023-01-31T05:43:23.239Z,69.81
2023-01-31T05:48:31.832Z,69.65
2023-01-31T05:50:58.812Z,69.66
2023-01-31T05:53:25.749Z,69.80
2023-01-31T05:55:56.285Z,70.20
2023-01-31T05:58:25.932Z,70.02
2023-01-31T06:01:06.393Z,70.40
2023-01-31T06:03:34.261Z,70.40
2023-01-31T06:06:01.703Z,70.62
2023-01-31T06:08:36.179Z,70.74
2023-01-31T06:11:04.385Z,70.92
2023-01-31T06:13:43.050Z,70.95
2023-01-31T06:16:13.380Z,70.85
2023-01-31T06:18:43.417Z,70.84
2023-01-31T06:21:11.641Z,70.87
2023-01-31T06:23:49.628Z,70.67
2023-01-31T06:26:22.154Z,70.69
2023-01-31T06:29:10.585Z,70.71
2023-01-31T06:31:46.017Z,70.83
2023-01-31T06:34:13.312Z,70.77
2023-01-31T06:36:40.667Z,70.83
2023-01-31T06:39:11.535Z,70.86
2023-01-31T06:41:40.629Z,70.93
2023-01-31T06:44:19.224Z,70.97
2023-01-31T06:46:49.552Z,70.94
2023-01-31T06:49:19.573Z,70.63
2023-01-31T06:51:52.611Z,70.85
2023-01-31T06:54:20.625Z,70.46
2023-01-31T06:56:55.099Z,70.22
2023-01-31T06:59:31.328Z,70.00
2023-01-31T07:02:00.141Z,69.85
2023-01-31T07:04:27.764Z,69.85
2023-01-31T07:06:56.984Z,69.97
2023-01-31T07:09:24.015Z,70.12
2023-01-31T07:11:51.008Z,70.09
2023-01-31T07:14:19.912Z,70.45
2023-01-31T07:16:48.305Z,70.60
2023-01-31T07:19:15.356Z,70.80
2023-01-31T07:21:44.550Z,70.79
2023-01-31T07:24:12.517Z,70.87
2023-01-31T07:26:47.308Z,70.98
2023-01-31T07:29:19.207Z,70.89
2023-01-31T07:31:47.598Z,70.65
2023-01-31T07:34:15.381Z,70.55
2023-01-31T07:36:44.246Z,70.51
2023-01-31T07:39:13.130Z,70.55
2023-01-31T07:41:46.874Z,70.46
2023-01-31T07:44:22.170Z,70.27
2023-01-31T07:46:52.486Z,70.24
2023-01-31T07:49:19.852Z,70.16
2023-01-31T07:51:56.701Z,70.39
2023-01-31T07:54:40.121Z,70.08
2023-01-31T07:57:08.325Z,69.73
2023-01-31T07:59:56.383Z,69.54
2023-01-31T08:02:53.379Z,69.32
2023-01-31T08:05:21.768Z,68.78
2023-01-31T08:11:07.157Z,68.48
2023-01-31T08:13:38.727Z,68.52
2023-01-31T08:16:10.973Z,68.39
2023-01-31T08:18:41.412Z,68.35
2023-01-31T08:21:11.240Z,68.41
2023-01-31T08:26:54.608Z,68.51
2023-01-31T08:29:24.783Z,68.61
2023-01-31T08:31:54.277Z,68.64
2023-01-31T08:34:34.983Z,68.44
2023-01-31T08:37:05.080Z,68.21
2023-01-31T08:39:36.010Z,67.92
2023-01-31T08:42:05.356Z,67.81
2023-01-31T08:44:44.922Z,67.83
2023-01-31T08:47:14.842Z,67.92
2023-01-31T08:49:42.975Z,68.05
2023-01-31T08:52:11.324Z,67.91
2023-01-31T08:54:42.212Z,67.90
2023-01-31T08:57:16.243Z,67.86
2023-01-31T08:59:49.085Z,67.70
2023-01-31T09:02:23.990Z,67.77
2023-01-31T09:04:55.154Z,67.64
2023-01-31T09:07:22.251Z,67.76
2023-01-31T09:09:58.332Z,67.59
2023-01-31T09:12:25.970Z,67.47
2023-01-31T09:15:21.756Z,67.38
2023-01-31T09:17:52.699Z,67.15
2023-01-31T09:20:20.459Z,66.98
2023-01-31T09:22:48.442Z,67.04
2023-01-31T09:25:16.012Z,67.19
2023-01-31T09:27:44.809Z,67.21
2023-01-31T09:30:34.079Z,67.31
2023-01-31T09:33:03.343Z,67.48
2023-01-31T09:35:33.156Z,67.59
2023-01-31T09:38:15.913Z,67.82
2023-01-31T09:43:40.043Z,68.15
2023-01-31T09:46:17.566Z,68.11
2023-01-31T09:48:49.251Z,68.14
2023-01-31T09:51:17.364Z,68.30
2023-01-31T09:53:45.088Z,68.42
2023-01-31T09:56:20.874Z,67.69
2023-01-31T09:58:54.102Z,67.50
2023-01-31T10:01:32.983Z,67.35
2023-01-31T14:06:24.768Z,77.48
2023-01-31T14:25:46.015Z,77.01
2023-01-31T14:28:20.055Z,76.98
2023-01-31T14:30:58.132Z,77.20
2023-01-31T14:33:28.447Z,77.33
2023-01-31T14:40:54.056Z,77.64
2023-01-31T14:44:06.676Z,77.79
2023-01-31T14:47:08.077Z,77.85
2023-01-31T21:16:23.249Z,89.04
2023-01-31T21:18:57.063Z,88.72
2023-01-31T21:21:25.145Z,88.44
2023-01-31T21:23:55.024Z,88.35
2023-01-31T21:26:23.437Z,88.08
2023-01-31T21:28:52.349Z,87.61
2023-01-31T21:31:20.352Z,87.48
2023-01-31T21:33:50.232Z,86.86
2023-01-31T21:36:20.049Z,86.26
2023-01-31T21:38:49.245Z,85.81
2023-01-31T21:41:36.051Z,85.50
2023-01-31T21:44:03.635Z,84.84
2023-01-31T21:46:30.963Z,84.74
2023-01-31T21:48:59.430Z,84.51
2023-01-31T21:51:26.496Z,84.34
2023-01-31T21:53:53.650Z,84.03
2023-01-31T21:56:24.486Z,84.08
2023-01-31T21:58:55.256Z,84.15
2023-01-31T22:01:25.183Z,83.80
2023-01-31T22:03:52.687Z,83.47
2023-01-31T22:06:25.169Z,83.07
2023-01-31T22:08:53.595Z,82.76
2023-01-31T22:11:21.382Z,82.49
2023-01-31T22:13:52.210Z,82.32
2023-01-31T22:16:20.928Z,82.47
2023-01-31T22:18:48.175Z,82.50
2023-01-31T22:21:17.472Z,82.46
2023-01-31T22:23:46.958Z,82.75
2023-01-31T22:26:16.499Z,82.60
2023-01-31T22:28:44.761Z,82.51
2023-01-31T22:31:12.102Z,82.36
2023-01-31T22:33:40.442Z,82.14
2023-01-31T22:36:09.154Z,81.95
2023-01-31T22:38:37.192Z,82.22
2023-01-31T22:41:09.498Z,82.26
2023-01-31T22:43:56.036Z,82.55
2023-01-31T22:46:32.083Z,82.70
2023-01-31T22:48:59.484Z,82.58
2023-01-31T22:51:28.125Z,82.65
2023-01-31T22:53:55.953Z,82.59
2023-01-31T22:56:32.257Z,82.48
2023-01-31T22:59:11.379Z,82.16
2023-01-31T23:01:38.689Z,81.73
2023-01-31T23:04:18.797Z,81.53
2023-01-31T23:06:45.888Z,81.36
2023-01-31T23:09:13.066Z,81.35
2023-01-31T23:11:40.397Z,81.31
2023-01-31T23:14:08.592Z,81.36
2023-01-31T23:16:54.295Z,81.54
2023-01-31T23:19:21.363Z,82.09
2023-01-31T23:21:48.927Z,82.29
2023-01-31T23:24:16.024Z,82.05
2023-01-31T23:26:43.052Z,82.00
2023-01-31T23:29:10.684Z,81.82
2023-01-31T23:31:38.686Z,81.80
2023-01-31T23:34:07.072Z,82.00
2023-01-31T23:36:34.624Z,82.16
2023-01-31T23:39:01.738Z,81.94
2023-01-31T23:41:28.856Z,82.23
2023-01-31T23:43:56.409Z,82.74
2023-01-31T23:46:23.371Z,82.85
2023-01-31T23:48:50.523Z,82.63
2023-01-31T23:51:17.770Z,82.72
2023-01-31T23:53:48.813Z,82.78
2023-01-31T23:56:15.926Z,82.94
2023-01-31T23:58:43.134Z,82.61
